sensor_id;sensor_type;location;lat;lon;timestamp;temperature;humidity
17370;DHT22;8802;52.402;4.920;2023-09-19T00:00:56;19.00;98.00
17370;DHT22;8802;52.402;4.920;2023-09-19T00:03:23;19.00;97.30
17370;DHT22;8802;52.402;4.920;2023-09-19T00:05:52;19.00;97.50
17370;DHT22;8802;52.402;4.920;2023-09-19T00:08:21;19.00;97.40
17370;DHT22;8802;52.402;4.920;2023-09-19T00:10:50;19.00;97.00
17370;DHT22;8802;52.402;4.920;2023-09-19T00:13:19;19.00;97.50
17370;DHT22;8802;52.402;4.920;2023-09-19T00:15:47;19.00;97.00
17370;DHT22;8802;52.402;4.920;2023-09-19T00:18:15;19.00;97.00
17370;DHT22;8802;52.402;4.920;2023-09-19T00:20:42;19.00;97.40
17370;DHT22;8802;52.402;4.920;2023-09-19T00:23:14;19.00;97.30
17370;DHT22;8802;52.402;4.920;2023-09-19T00:25:42;19.00;97.20
17370;DHT22;8802;52.402;4.920;2023-09-19T00:28:08;19.00;97.20
17370;DHT22;8802;52.402;4.920;2023-09-19T00:30:35;19.00;97.20
17370;DHT22;8802;52.402;4.920;2023-09-19T00:33:04;19.00;97.00
17370;DHT22;8802;52.402;4.920;2023-09-19T00:35:33;19.00;96.90
17370;DHT22;8802;52.402;4.920;2023-09-19T00:38:00;19.00;96.90
17370;DHT22;8802;52.402;4.920;2023-09-19T00:40:28;19.00;96.90
17370;DHT22;8802;52.402;4.920;2023-09-19T00:42:57;19.00;97.20
17370;DHT22;8802;52.402;4.920;2023-09-19T00:45:25;19.00;96.60
17370;DHT22;8802;52.402;4.920;2023-09-19T00:47:54;19.00;97.10
17370;DHT22;8802;52.402;4.920;2023-09-19T00:50:24;19.00;97.10
17370;DHT22;8802;52.402;4.920;2023-09-19T00:52:54;19.00;96.80
17370;DHT22;8802;52.402;4.920;2023-09-19T00:55:24;19.00;97.20
17370;DHT22;8802;52.402;4.920;2023-09-19T00:57:52;19.00;97.20
17370;DHT22;8802;52.402;4.920;2023-09-19T01:00:22;19.00;96.80
17370;DHT22;8802;52.402;4.920;2023-09-19T01:02:49;19.00;97.40
17370;DHT22;8802;52.402;4.920;2023-09-19T01:05:16;19.00;97.20
17370;DHT22;8802;52.402;4.920;2023-09-19T01:07:44;19.00;96.90
17370;DHT22;8802;52.402;4.920;2023-09-19T01:10:13;19.00;97.20
17370;DHT22;8802;52.402;4.920;2023-09-19T01:12:48;19.00;97.30
17370;DHT22;8802;52.402;4.920;2023-09-19T01:15:24;19.00;97.00
17370;DHT22;8802;52.402;4.920;2023-09-19T01:17:59;19.00;96.40
17370;DHT22;8802;52.402;4.920;2023-09-19T01:20:37;19.00;96.80
17370;DHT22;8802;52.402;4.920;2023-09-19T01:23:13;19.00;96.80
17370;DHT22;8802;52.402;4.920;2023-09-19T01:26:17;19.00;96.80
17370;DHT22;8802;52.402;4.920;2023-09-19T01:29:01;19.00;97.20
17370;DHT22;8802;52.402;4.920;2023-09-19T01:31:37;19.00;97.40
17370;DHT22;8802;52.402;4.920;2023-09-19T01:34:06;19.00;96.80
17370;DHT22;8802;52.402;4.920;2023-09-19T01:36:35;19.00;96.90
17370;DHT22;8802;52.402;4.920;2023-09-19T01:39:05;19.00;97.20
17370;DHT22;8802;52.402;4.920;2023-09-19T01:41:47;19.00;97.10
17370;DHT22;8802;52.402;4.920;2023-09-19T01:44:31;19.00;97.00
17370;DHT22;8802;52.402;4.920;2023-09-19T01:47:07;19.00;97.40
17370;DHT22;8802;52.402;4.920;2023-09-19T01:49:44;19.00;97.00
17370;DHT22;8802;52.402;4.920;2023-09-19T01:52:13;19.00;97.00
17370;DHT22;8802;52.402;4.920;2023-09-19T01:54:46;19.00;96.90
17370;DHT22;8802;52.402;4.920;2023-09-19T01:57:17;19.00;96.70
17370;DHT22;8802;52.402;4.920;2023-09-19T01:59:50;19.00;97.00
17370;DHT22;8802;52.402;4.920;2023-09-19T02:02:20;19.00;97.00
17370;DHT22;8802;52.402;4.920;2023-09-19T02:04:48;19.00;96.80
17370;DHT22;8802;52.402;4.920;2023-09-19T02:07:16;19.00;96.70
17370;DHT22;8802;52.402;4.920;2023-09-19T02:09:43;19.10;97.30
17370;DHT22;8802;52.402;4.920;2023-09-19T02:12:10;19.10;97.10
17370;DHT22;8802;52.402;4.920;2023-09-19T02:14:37;19.10;96.90
17370;DHT22;8802;52.402;4.920;2023-09-19T02:17:04;19.10;96.80
17370;DHT22;8802;52.402;4.920;2023-09-19T02:19:34;19.10;97.00
17370;DHT22;8802;52.402;4.920;2023-09-19T02:22:01;19.10;97.00
17370;DHT22;8802;52.402;4.920;2023-09-19T02:24:28;19.10;97.00
17370;DHT22;8802;52.402;4.920;2023-09-19T02:26:56;19.10;97.00
17370;DHT22;8802;52.402;4.920;2023-09-19T02:29:25;19.10;96.90
17370;DHT22;8802;52.402;4.920;2023-09-19T02:31:52;19.20;97.10
17370;DHT22;8802;52.402;4.920;2023-09-19T02:34:21;19.10;97.30
17370;DHT22;8802;52.402;4.920;2023-09-19T02:36:50;19.20;97.30
17370;DHT22;8802;52.402;4.920;2023-09-19T02:39:19;19.20;97.20
17370;DHT22;8802;52.402;4.920;2023-09-19T02:41:46;19.20;97.50
17370;DHT22;8802;52.402;4.920;2023-09-19T02:44:13;19.20;97.40
17370;DHT22;8802;52.402;4.920;2023-09-19T02:46:40;19.20;97.20
17370;DHT22;8802;52.402;4.920;2023-09-19T02:49:07;19.20;97.10
17370;DHT22;8802;52.402;4.920;2023-09-19T02:51:34;19.20;97.00
17370;DHT22;8802;52.402;4.920;2023-09-19T02:54:03;19.20;96.80
17370;DHT22;8802;52.402;4.920;2023-09-19T02:56:30;19.20;96.80
17370;DHT22;8802;52.402;4.920;2023-09-19T02:58:58;19.20;96.80
17370;DHT22;8802;52.402;4.920;2023-09-19T03:01:26;19.20;96.80
17370;DHT22;8802;52.402;4.920;2023-09-19T03:03:53;19.20;96.80
17370;DHT22;8802;52.402;4.920;2023-09-19T03:06:20;19.20;96.80
17370;DHT22;8802;52.402;4.920;2023-09-19T03:08:49;19.20;96.90
17370;DHT22;8802;52.402;4.920;2023-09-19T03:11:18;19.20;96.80
17370;DHT22;8802;52.402;4.920;2023-09-19T03:13:51;19.20;96.90
17370;DHT22;8802;52.402;4.920;2023-09-19T03:16:19;19.20;96.80
17370;DHT22;8802;52.402;4.920;2023-09-19T03:18:47;19.20;96.90
17370;DHT22;8802;52.402;4.920;2023-09-19T03:21:14;19.20;96.60
17370;DHT22;8802;52.402;4.920;2023-09-19T03:23:42;19.20;97.10
17370;DHT22;8802;52.402;4.920;2023-09-19T03:26:11;19.20;97.50
17370;DHT22;8802;52.402;4.920;2023-09-19T03:28:41;19.20;97.60
17370;DHT22;8802;52.402;4.920;2023-09-19T03:31:08;19.20;97.80
17370;DHT22;8802;52.402;4.920;2023-09-19T03:33:35;19.20;97.60
17370;DHT22;8802;52.402;4.920;2023-09-19T03:36:03;19.20;97.70
17370;DHT22;8802;52.402;4.920;2023-09-19T03:38:32;19.20;97.60
17370;DHT22;8802;52.402;4.920;2023-09-19T03:40:59;19.20;97.60
17370;DHT22;8802;52.402;4.920;2023-09-19T03:43:26;19.20;97.30
17370;DHT22;8802;52.402;4.920;2023-09-19T03:45:54;19.20;97.20
17370;DHT22;8802;52.402;4.920;2023-09-19T03:48:21;19.20;97.20
17370;DHT22;8802;52.402;4.920;2023-09-19T03:50:48;19.20;97.40
17370;DHT22;8802;52.402;4.920;2023-09-19T03:53:15;19.20;97.50
17370;DHT22;8802;52.402;4.920;2023-09-19T03:55:44;19.20;97.40
17370;DHT22;8802;52.402;4.920;2023-09-19T03:58:11;19.20;97.40
17370;DHT22;8802;52.402;4.920;2023-09-19T04:00:39;19.10;97.50
17370;DHT22;8802;52.402;4.920;2023-09-19T04:03:07;19.10;97.40
17370;DHT22;8802;52.402;4.920;2023-09-19T04:05:34;19.10;97.10
17370;DHT22;8802;52.402;4.920;2023-09-19T04:08:01;19.10;97.30
17370;DHT22;8802;52.402;4.920;2023-09-19T04:10:28;19.10;96.80
17370;DHT22;8802;52.402;4.920;2023-09-19T04:12:55;19.10;96.60
17370;DHT22;8802;52.402;4.920;2023-09-19T04:15:23;19.10;96.70
17370;DHT22;8802;52.402;4.920;2023-09-19T04:17:50;19.10;96.40
17370;DHT22;8802;52.402;4.920;2023-09-19T04:20:18;19.00;96.50
17370;DHT22;8802;52.402;4.920;2023-09-19T04:22:48;19.00;96.00
17370;DHT22;8802;52.402;4.920;2023-09-19T04:25:14;19.00;95.80
17370;DHT22;8802;52.402;4.920;2023-09-19T04:27:41;19.00;96.30
17370;DHT22;8802;52.402;4.920;2023-09-19T04:30:09;19.00;95.80
17370;DHT22;8802;52.402;4.920;2023-09-19T04:32:37;19.00;96.00
17370;DHT22;8802;52.402;4.920;2023-09-19T04:35:06;19.00;95.90
17370;DHT22;8802;52.402;4.920;2023-09-19T04:37:37;19.00;96.10
17370;DHT22;8802;52.402;4.920;2023-09-19T04:40:06;19.00;96.20
17370;DHT22;8802;52.402;4.920;2023-09-19T04:42:38;19.00;96.00
17370;DHT22;8802;52.402;4.920;2023-09-19T04:45:06;19.00;96.20
17370;DHT22;8802;52.402;4.920;2023-09-19T04:47:35;19.00;96.30
17370;DHT22;8802;52.402;4.920;2023-09-19T04:50:06;19.00;96.30
17370;DHT22;8802;52.402;4.920;2023-09-19T04:52:39;19.00;96.40
17370;DHT22;8802;52.402;4.920;2023-09-19T04:55:08;19.00;96.50
17370;DHT22;8802;52.402;4.920;2023-09-19T04:57:36;19.00;96.80
17370;DHT22;8802;52.402;4.920;2023-09-19T05:00:05;19.10;96.40
17370;DHT22;8802;52.402;4.920;2023-09-19T05:02:38;19.10;96.50
17370;DHT22;8802;52.402;4.920;2023-09-19T05:05:06;19.10;96.40
17370;DHT22;8802;52.402;4.920;2023-09-19T05:07:33;19.10;96.80
17370;DHT22;8802;52.402;4.920;2023-09-19T05:10:02;19.10;97.10
17370;DHT22;8802;52.402;4.920;2023-09-19T05:12:33;19.10;97.10
17370;DHT22;8802;52.402;4.920;2023-09-19T05:15:00;19.10;97.40
17370;DHT22;8802;52.402;4.920;2023-09-19T05:17:28;19.10;97.40
17370;DHT22;8802;52.402;4.920;2023-09-19T05:19:55;19.10;97.40
17370;DHT22;8802;52.402;4.920;2023-09-19T05:22:23;19.10;97.60
17370;DHT22;8802;52.402;4.920;2023-09-19T05:24:51;19.10;97.40
17370;DHT22;8802;52.402;4.920;2023-09-19T05:27:19;19.10;97.50
17370;DHT22;8802;52.402;4.920;2023-09-19T05:29:47;19.10;97.60
17370;DHT22;8802;52.402;4.920;2023-09-19T05:32:14;19.10;97.60
17370;DHT22;8802;52.402;4.920;2023-09-19T05:34:41;19.10;97.50
17370;DHT22;8802;52.402;4.920;2023-09-19T05:37:08;19.10;97.70
17370;DHT22;8802;52.402;4.920;2023-09-19T05:39:35;19.10;97.60
17370;DHT22;8802;52.402;4.920;2023-09-19T05:42:03;19.10;98.10
17370;DHT22;8802;52.402;4.920;2023-09-19T05:44:31;19.10;97.80
17370;DHT22;8802;52.402;4.920;2023-09-19T05:46:59;19.10;97.60
17370;DHT22;8802;52.402;4.920;2023-09-19T05:49:25;19.10;97.90
17370;DHT22;8802;52.402;4.920;2023-09-19T05:51:53;19.10;97.80
17370;DHT22;8802;52.402;4.920;2023-09-19T05:54:22;19.10;97.70
17370;DHT22;8802;52.402;4.920;2023-09-19T05:56:49;19.10;97.70
17370;DHT22;8802;52.402;4.920;2023-09-19T05:59:18;19.10;97.60
17370;DHT22;8802;52.402;4.920;2023-09-19T06:01:47;19.10;97.40
17370;DHT22;8802;52.402;4.920;2023-09-19T06:04:14;19.10;97.40
17370;DHT22;8802;52.402;4.920;2023-09-19T06:06:41;19.10;97.10
17370;DHT22;8802;52.402;4.920;2023-09-19T06:09:08;19.20;97.20
17370;DHT22;8802;52.402;4.920;2023-09-19T06:11:35;19.20;97.20
17370;DHT22;8802;52.402;4.920;2023-09-19T06:14:02;19.20;97.30
17370;DHT22;8802;52.402;4.920;2023-09-19T06:16:28;19.20;97.10
17370;DHT22;8802;52.402;4.920;2023-09-19T06:18:57;19.20;97.10
17370;DHT22;8802;52.402;4.920;2023-09-19T06:21:24;19.20;96.80
17370;DHT22;8802;52.402;4.920;2023-09-19T06:23:52;19.20;96.90
17370;DHT22;8802;52.402;4.920;2023-09-19T06:26:19;19.20;96.70
17370;DHT22;8802;52.402;4.920;2023-09-19T06:28:47;19.20;96.90
17370;DHT22;8802;52.402;4.920;2023-09-19T06:31:13;19.30;97.10
17370;DHT22;8802;52.402;4.920;2023-09-19T06:33:40;19.30;96.90
17370;DHT22;8802;52.402;4.920;2023-09-19T06:36:10;19.30;96.80
17370;DHT22;8802;52.402;4.920;2023-09-19T06:38:37;19.40;96.70
17370;DHT22;8802;52.402;4.920;2023-09-19T06:41:05;19.40;97.00
17370;DHT22;8802;52.402;4.920;2023-09-19T06:43:33;19.40;97.10
17370;DHT22;8802;52.402;4.920;2023-09-19T06:46:00;19.40;97.20
17370;DHT22;8802;52.402;4.920;2023-09-19T06:48:28;19.40;97.30
17370;DHT22;8802;52.402;4.920;2023-09-19T06:50:56;19.40;97.40
17370;DHT22;8802;52.402;4.920;2023-09-19T06:53:25;19.40;97.50
17370;DHT22;8802;52.402;4.920;2023-09-19T06:55:52;19.40;97.60
17370;DHT22;8802;52.402;4.920;2023-09-19T06:58:19;19.40;97.70
17370;DHT22;8802;52.402;4.920;2023-09-19T07:00:46;19.40;97.80
17370;DHT22;8802;52.402;4.920;2023-09-19T07:03:15;19.40;98.00
17370;DHT22;8802;52.402;4.920;2023-09-19T07:05:44;19.40;97.90
17370;DHT22;8802;52.402;4.920;2023-09-19T07:08:11;19.50;97.90
17370;DHT22;8802;52.402;4.920;2023-09-19T07:10:40;19.40;97.80
17370;DHT22;8802;52.402;4.920;2023-09-19T07:13:08;19.50;98.00
17370;DHT22;8802;52.402;4.920;2023-09-19T07:15:37;19.50;97.90
17370;DHT22;8802;52.402;4.920;2023-09-19T07:18:07;19.50;98.00
17370;DHT22;8802;52.402;4.920;2023-09-19T07:20:36;19.50;97.90
17370;DHT22;8802;52.402;4.920;2023-09-19T07:23:04;19.50;97.80
17370;DHT22;8802;52.402;4.920;2023-09-19T07:25:31;19.50;97.80
17370;DHT22;8802;52.402;4.920;2023-09-19T07:28:00;19.50;97.90
17370;DHT22;8802;52.402;4.920;2023-09-19T07:30:27;19.50;98.70
17370;DHT22;8802;52.402;4.920;2023-09-19T07:32:54;19.50;99.50
17370;DHT22;8802;52.402;4.920;2023-09-19T07:35:21;19.60;99.50
17370;DHT22;8802;52.402;4.920;2023-09-19T07:37:48;19.50;99.70
17370;DHT22;8802;52.402;4.920;2023-09-19T07:40:17;19.50;99.60
17370;DHT22;8802;52.402;4.920;2023-09-19T07:42:44;19.50;99.60
17370;DHT22;8802;52.402;4.920;2023-09-19T07:45:14;19.40;99.90
17370;DHT22;8802;52.402;4.920;2023-09-19T07:47:44;19.40;99.50
17370;DHT22;8802;52.402;4.920;2023-09-19T07:50:12;19.40;99.90
17370;DHT22;8802;52.402;4.920;2023-09-19T07:52:39;19.30;99.90
17370;DHT22;8802;52.402;4.920;2023-09-19T07:55:06;19.40;99.90
17370;DHT22;8802;52.402;4.920;2023-09-19T07:57:36;19.40;99.90
17370;DHT22;8802;52.402;4.920;2023-09-19T08:00:04;19.40;99.90
17370;DHT22;8802;52.402;4.920;2023-09-19T08:02:35;19.40;99.90
17370;DHT22;8802;52.402;4.920;2023-09-19T08:05:04;19.40;99.90
17370;DHT22;8802;52.402;4.920;2023-09-19T08:07:35;19.40;99.90
17370;DHT22;8802;52.402;4.920;2023-09-19T08:10:02;19.40;99.90
17370;DHT22;8802;52.402;4.920;2023-09-19T08:12:29;19.40;99.90
17370;DHT22;8802;52.402;4.920;2023-09-19T08:14:56;19.40;99.90
17370;DHT22;8802;52.402;4.920;2023-09-19T08:17:23;19.40;99.90
17370;DHT22;8802;52.402;4.920;2023-09-19T08:19:52;19.40;99.90
17370;DHT22;8802;52.402;4.920;2023-09-19T08:22:19;19.40;99.90
17370;DHT22;8802;52.402;4.920;2023-09-19T08:24:47;19.50;99.90
17370;DHT22;8802;52.402;4.920;2023-09-19T08:27:14;19.50;99.90
17370;DHT22;8802;52.402;4.920;2023-09-19T08:29:43;19.50;99.90
17370;DHT22;8802;52.402;4.920;2023-09-19T08:32:12;19.50;99.90
17370;DHT22;8802;52.402;4.920;2023-09-19T08:34:40;19.50;99.90
17370;DHT22;8802;52.402;4.920;2023-09-19T08:37:08;19.50;99.90
17370;DHT22;8802;52.402;4.920;2023-09-19T08:39:36;19.50;99.90
17370;DHT22;8802;52.402;4.920;2023-09-19T08:42:03;19.50;99.90
17370;DHT22;8802;52.402;4.920;2023-09-19T08:44:36;19.50;99.90
17370;DHT22;8802;52.402;4.920;2023-09-19T08:47:10;19.50;99.90
17370;DHT22;8802;52.402;4.920;2023-09-19T08:49:44;19.50;99.90
17370;DHT22;8802;52.402;4.920;2023-09-19T08:52:20;19.60;99.90
17370;DHT22;8802;52.402;4.920;2023-09-19T08:54:52;19.60;99.90
17370;DHT22;8802;52.402;4.920;2023-09-19T08:57:19;19.70;99.90
17370;DHT22;8802;52.402;4.920;2023-09-19T08:59:48;19.70;99.90
17370;DHT22;8802;52.402;4.920;2023-09-19T09:02:16;19.70;99.90
17370;DHT22;8802;52.402;4.920;2023-09-19T09:04:46;19.70;99.90
17370;DHT22;8802;52.402;4.920;2023-09-19T09:07:15;19.70;99.90
17370;DHT22;8802;52.402;4.920;2023-09-19T09:09:44;19.70;99.90
17370;DHT22;8802;52.402;4.920;2023-09-19T09:12:12;19.70;99.90
17370;DHT22;8802;52.402;4.920;2023-09-19T09:14:40;19.70;99.90
17370;DHT22;8802;52.402;4.920;2023-09-19T09:17:11;19.70;99.90
17370;DHT22;8802;52.402;4.920;2023-09-19T09:19:38;19.70;99.90
17370;DHT22;8802;52.402;4.920;2023-09-19T09:22:07;19.70;99.90
17370;DHT22;8802;52.402;4.920;2023-09-19T09:24:36;19.70;99.90
17370;DHT22;8802;52.402;4.920;2023-09-19T09:27:05;19.70;99.90
17370;DHT22;8802;52.402;4.920;2023-09-19T09:29:41;19.70;99.90
17370;DHT22;8802;52.402;4.920;2023-09-19T09:32:19;19.70;99.90
17370;DHT22;8802;52.402;4.920;2023-09-19T09:34:48;19.70;99.90
17370;DHT22;8802;52.402;4.920;2023-09-19T09:37:16;19.70;99.90
17370;DHT22;8802;52.402;4.920;2023-09-19T09:39:56;19.80;99.90
17370;DHT22;8802;52.402;4.920;2023-09-19T09:42:29;19.80;99.90
17370;DHT22;8802;52.402;4.920;2023-09-19T09:45:13;19.80;99.90
17370;DHT22;8802;52.402;4.920;2023-09-19T09:47:44;19.90;99.90
17370;DHT22;8802;52.402;4.920;2023-09-19T09:50:27;19.90;99.90
17370;DHT22;8802;52.402;4.920;2023-09-19T09:53:22;19.90;99.90
17370;DHT22;8802;52.402;4.920;2023-09-19T09:56:02;20.00;99.90
17370;DHT22;8802;52.402;4.920;2023-09-19T09:58:32;20.00;99.90
17370;DHT22;8802;52.402;4.920;2023-09-19T10:00:59;20.10;99.90
17370;DHT22;8802;52.402;4.920;2023-09-19T10:03:35;20.10;99.90
17370;DHT22;8802;52.402;4.920;2023-09-19T10:06:10;20.20;99.90
17370;DHT22;8802;52.402;4.920;2023-09-19T10:09:00;20.20;99.90
17370;DHT22;8802;52.402;4.920;2023-09-19T10:11:40;20.30;99.90
17370;DHT22;8802;52.402;4.920;2023-09-19T10:14:09;20.30;99.90
17370;DHT22;8802;52.402;4.920;2023-09-19T10:16:41;20.40;99.90
17370;DHT22;8802;52.402;4.920;2023-09-19T10:19:15;20.40;99.90
17370;DHT22;8802;52.402;4.920;2023-09-19T10:21:43;20.50;99.90
17370;DHT22;8802;52.402;4.920;2023-09-19T10:24:11;20.60;99.90
17370;DHT22;8802;52.402;4.920;2023-09-19T10:26:44;20.70;99.90
17370;DHT22;8802;52.402;4.920;2023-09-19T10:29:13;20.70;99.80
17370;DHT22;8802;52.402;4.920;2023-09-19T10:31:42;20.80;99.70
17370;DHT22;8802;52.402;4.920;2023-09-19T10:34:14;20.90;99.50
17370;DHT22;8802;52.402;4.920;2023-09-19T10:36:45;21.00;99.50
17370;DHT22;8802;52.402;4.920;2023-09-19T10:39:14;21.00;99.20
17370;DHT22;8802;52.402;4.920;2023-09-19T10:41:49;21.10;99.10
17370;DHT22;8802;52.402;4.920;2023-09-19T10:44:21;21.10;98.90
17370;DHT22;8802;52.402;4.920;2023-09-19T10:46:51;21.10;99.00
17370;DHT22;8802;52.402;4.920;2023-09-19T10:49:19;21.10;98.80
17370;DHT22;8802;52.402;4.920;2023-09-19T10:51:46;21.20;98.50
17370;DHT22;8802;52.402;4.920;2023-09-19T10:54:17;21.10;98.50
17370;DHT22;8802;52.402;4.920;2023-09-19T10:56:49;21.20;98.70
17370;DHT22;8802;52.402;4.920;2023-09-19T10:59:18;21.20;98.40
17370;DHT22;8802;52.402;4.920;2023-09-19T11:01:47;21.20;98.40
17370;DHT22;8802;52.402;4.920;2023-09-19T11:04:24;21.20;98.70
17370;DHT22;8802;52.402;4.920;2023-09-19T11:07:05;21.20;98.20
17370;DHT22;8802;52.402;4.920;2023-09-19T11:09:48;21.20;98.60
17370;DHT22;8802;52.402;4.920;2023-09-19T11:12:51;21.20;97.90
17370;DHT22;8802;52.402;4.920;2023-09-19T11:16:03;21.20;97.70
17370;DHT22;8802;52.402;4.920;2023-09-19T11:18:52;21.20;97.90
17370;DHT22;8802;52.402;4.920;2023-09-19T11:21:51;21.20;98.20
17370;DHT22;8802;52.402;4.920;2023-09-19T11:24:32;21.20;98.00
17370;DHT22;8802;52.402;4.920;2023-09-19T11:27:13;21.20;97.90
17370;DHT22;8802;52.402;4.920;2023-09-19T11:29:41;21.20;98.50
17370;DHT22;8802;52.402;4.920;2023-09-19T11:32:08;21.20;98.30
17370;DHT22;8802;52.402;4.920;2023-09-19T11:34:46;21.30;98.30
17370;DHT22;8802;52.402;4.920;2023-09-19T11:40:33;21.30;98.30
17370;DHT22;8802;52.402;4.920;2023-09-19T11:43:31;21.40;98.40
17370;DHT22;8802;52.402;4.920;2023-09-19T11:46:05;21.40;98.30
17370;DHT22;8802;52.402;4.920;2023-09-19T11:48:32;21.40;98.00
17370;DHT22;8802;52.402;4.920;2023-09-19T11:51:00;21.30;98.00
17370;DHT22;8802;52.402;4.920;2023-09-19T11:53:33;21.40;98.00
17370;DHT22;8802;52.402;4.920;2023-09-19T11:56:01;21.40;98.10
17370;DHT22;8802;52.402;4.920;2023-09-19T11:58:30;21.40;98.00
17370;DHT22;8802;52.402;4.920;2023-09-19T12:01:00;21.50;97.90
17370;DHT22;8802;52.402;4.920;2023-09-19T12:03:31;21.40;98.00
17370;DHT22;8802;52.402;4.920;2023-09-19T12:05:59;21.50;98.10
17370;DHT22;8802;52.402;4.920;2023-09-19T12:08:28;21.50;98.10
17370;DHT22;8802;52.402;4.920;2023-09-19T12:10:55;21.50;98.20
17370;DHT22;8802;52.402;4.920;2023-09-19T12:13:23;21.50;98.30
17370;DHT22;8802;52.402;4.920;2023-09-19T12:15:51;21.50;98.50
17370;DHT22;8802;52.402;4.920;2023-09-19T12:18:28;21.50;98.70
17370;DHT22;8802;52.402;4.920;2023-09-19T12:20:57;21.40;98.40
17370;DHT22;8802;52.402;4.920;2023-09-19T12:23:24;21.40;98.40
17370;DHT22;8802;52.402;4.920;2023-09-19T12:25:52;21.40;98.50
17370;DHT22;8802;52.402;4.920;2023-09-19T12:28:24;21.40;98.90
17370;DHT22;8802;52.402;4.920;2023-09-19T12:30:54;21.40;99.10
17370;DHT22;8802;52.402;4.920;2023-09-19T12:33:22;21.40;99.20
17370;DHT22;8802;52.402;4.920;2023-09-19T12:35:51;21.40;99.20
17370;DHT22;8802;52.402;4.920;2023-09-19T12:38:26;21.30;99.50
17370;DHT22;8802;52.402;4.920;2023-09-19T12:40:56;21.30;99.50
17370;DHT22;8802;52.402;4.920;2023-09-19T12:43:24;21.30;99.40
17370;DHT22;8802;52.402;4.920;2023-09-19T12:45:52;21.30;99.50
17370;DHT22;8802;52.402;4.920;2023-09-19T12:48:21;21.30;99.60
17370;DHT22;8802;52.402;4.920;2023-09-19T12:51:04;21.40;99.80
17370;DHT22;8802;52.402;4.920;2023-09-19T12:53:35;21.40;99.80
17370;DHT22;8802;52.402;4.920;2023-09-19T12:56:06;21.40;99.80
17370;DHT22;8802;52.402;4.920;2023-09-19T12:58:34;21.50;99.70
17370;DHT22;8802;52.402;4.920;2023-09-19T13:01:14;21.50;99.70
17370;DHT22;8802;52.402;4.920;2023-09-19T13:03:41;21.60;99.20
17370;DHT22;8802;52.402;4.920;2023-09-19T13:06:08;21.70;99.40
17370;DHT22;8802;52.402;4.920;2023-09-19T13:08:37;21.70;99.20
17370;DHT22;8802;52.402;4.920;2023-09-19T13:11:11;21.70;98.70
17370;DHT22;8802;52.402;4.920;2023-09-19T13:13:41;21.70;98.50
17370;DHT22;8802;52.402;4.920;2023-09-19T13:16:10;21.80;98.60
17370;DHT22;8802;52.402;4.920;2023-09-19T13:18:44;21.80;98.50
17370;DHT22;8802;52.402;4.920;2023-09-19T13:21:12;21.80;98.30
17370;DHT22;8802;52.402;4.920;2023-09-19T13:23:50;21.80;98.30
17370;DHT22;8802;52.402;4.920;2023-09-19T13:26:17;21.90;98.30
17370;DHT22;8802;52.402;4.920;2023-09-19T13:28:44;21.90;98.00
17370;DHT22;8802;52.402;4.920;2023-09-19T13:31:13;21.90;98.00
17370;DHT22;8802;52.402;4.920;2023-09-19T13:33:43;21.90;98.30
17370;DHT22;8802;52.402;4.920;2023-09-19T13:36:11;21.90;98.20
17370;DHT22;8802;52.402;4.920;2023-09-19T13:38:38;21.90;98.30
17370;DHT22;8802;52.402;4.920;2023-09-19T13:41:07;21.90;98.10
17370;DHT22;8802;52.402;4.920;2023-09-19T13:43:35;21.90;98.10
17370;DHT22;8802;52.402;4.920;2023-09-19T13:46:02;21.90;98.10
17370;DHT22;8802;52.402;4.920;2023-09-19T13:48:29;21.80;98.00
17370;DHT22;8802;52.402;4.920;2023-09-19T13:50:56;21.80;98.10
17370;DHT22;8802;52.402;4.920;2023-09-19T13:53:23;21.80;98.10
17370;DHT22;8802;52.402;4.920;2023-09-19T13:55:51;21.80;98.10
17370;DHT22;8802;52.402;4.920;2023-09-19T13:58:19;21.80;98.00
17370;DHT22;8802;52.402;4.920;2023-09-19T14:00:46;21.80;98.00
17370;DHT22;8802;52.402;4.920;2023-09-19T14:03:14;21.80;98.30
17370;DHT22;8802;52.402;4.920;2023-09-19T14:05:41;21.80;98.70
17370;DHT22;8802;52.402;4.920;2023-09-19T14:08:08;21.80;99.00
17370;DHT22;8802;52.402;4.920;2023-09-19T14:10:35;21.70;99.70
17370;DHT22;8802;52.402;4.920;2023-09-19T14:13:02;21.70;99.50
17370;DHT22;8802;52.402;4.920;2023-09-19T14:15:31;21.60;99.60
17370;DHT22;8802;52.402;4.920;2023-09-19T14:18:00;21.60;99.70
17370;DHT22;8802;52.402;4.920;2023-09-19T14:20:27;21.50;99.80
17370;DHT22;8802;52.402;4.920;2023-09-19T14:22:54;21.50;99.90
17370;DHT22;8802;52.402;4.920;2023-09-19T14:25:21;21.50;99.90
17370;DHT22;8802;52.402;4.920;2023-09-19T14:27:48;21.50;99.80
17370;DHT22;8802;52.402;4.920;2023-09-19T14:30:15;21.40;99.90
17370;DHT22;8802;52.402;4.920;2023-09-19T14:32:43;21.40;99.90
17370;DHT22;8802;52.402;4.920;2023-09-19T14:35:10;21.40;99.70
17370;DHT22;8802;52.402;4.920;2023-09-19T14:37:40;21.40;99.70
17370;DHT22;8802;52.402;4.920;2023-09-19T14:40:08;21.40;99.80
17370;DHT22;8802;52.402;4.920;2023-09-19T14:42:38;21.30;99.90
17370;DHT22;8802;52.402;4.920;2023-09-19T14:45:06;21.40;99.90
17370;DHT22;8802;52.402;4.920;2023-09-19T14:47:34;21.30;99.90
17370;DHT22;8802;52.402;4.920;2023-09-19T14:50:04;21.30;99.90
17370;DHT22;8802;52.402;4.920;2023-09-19T14:52:32;21.30;99.80
17370;DHT22;8802;52.402;4.920;2023-09-19T14:54:59;21.30;99.80
17370;DHT22;8802;52.402;4.920;2023-09-19T14:57:27;21.30;99.90
17370;DHT22;8802;52.402;4.920;2023-09-19T14:59:55;21.30;99.90
17370;DHT22;8802;52.402;4.920;2023-09-19T15:02:22;21.30;99.90
17370;DHT22;8802;52.402;4.920;2023-09-19T15:04:49;21.30;99.90
17370;DHT22;8802;52.402;4.920;2023-09-19T15:07:17;21.20;99.90
17370;DHT22;8802;52.402;4.920;2023-09-19T15:09:45;21.20;99.90
17370;DHT22;8802;52.402;4.920;2023-09-19T15:12:12;21.20;99.90
17370;DHT22;8802;52.402;4.920;2023-09-19T15:14:40;21.20;99.90
17370;DHT22;8802;52.402;4.920;2023-09-19T15:17:08;21.20;99.90
17370;DHT22;8802;52.402;4.920;2023-09-19T15:19:35;21.20;99.90
17370;DHT22;8802;52.402;4.920;2023-09-19T15:22:04;21.10;99.90
17370;DHT22;8802;52.402;4.920;2023-09-19T15:24:33;21.10;99.90
17370;DHT22;8802;52.402;4.920;2023-09-19T15:27:00;21.10;99.90
17370;DHT22;8802;52.402;4.920;2023-09-19T15:29:27;21.00;99.90
17370;DHT22;8802;52.402;4.920;2023-09-19T15:31:55;21.00;99.90
17370;DHT22;8802;52.402;4.920;2023-09-19T15:34:27;20.90;99.90
17370;DHT22;8802;52.402;4.920;2023-09-19T15:36:55;20.90;99.90
17370;DHT22;8802;52.402;4.920;2023-09-19T15:39:22;20.90;99.90
17370;DHT22;8802;52.402;4.920;2023-09-19T15:41:50;20.80;99.90
17370;DHT22;8802;52.402;4.920;2023-09-19T15:44:18;20.80;99.90
17370;DHT22;8802;52.402;4.920;2023-09-19T15:46:46;20.80;99.90
17370;DHT22;8802;52.402;4.920;2023-09-19T15:49:14;20.80;99.90
17370;DHT22;8802;52.402;4.920;2023-09-19T15:51:41;20.70;99.90
17370;DHT22;8802;52.402;4.920;2023-09-19T15:54:11;20.70;99.90
17370;DHT22;8802;52.402;4.920;2023-09-19T15:56:39;20.70;99.90
17370;DHT22;8802;52.402;4.920;2023-09-19T15:59:09;20.70;99.90
17370;DHT22;8802;52.402;4.920;2023-09-19T16:01:38;20.70;99.90
17370;DHT22;8802;52.402;4.920;2023-09-19T16:04:06;20.60;99.90